sensor_id;sensor_type;location;lat;lon;timestamp;P1;durP1;ratioP1;P2;durP2;ratioP2
74471;SDS011;62920;53.572;10.050;2023-08-07T00:01:01;4.93;;;1.35;;
74471;SDS011;62920;53.572;10.050;2023-08-07T00:03:26;6.38;;;1.50;;
74471;SDS011;62920;53.572;10.050;2023-08-07T00:05:52;4.97;;;1.45;;
74471;SDS011;62920;53.572;10.050;2023-08-07T00:08:17;3.90;;;1.40;;
74471;SDS011;62920;53.572;10.050;2023-08-07T00:10:43;5.03;;;1.02;;
74471;SDS011;62920;53.572;10.050;2023-08-07T00:13:08;4.70;;;1.55;;
74471;SDS011;62920;53.572;10.050;2023-08-07T00:15:33;4.65;;;1.30;;
74471;SDS011;62920;53.572;10.050;2023-08-07T00:17:59;8.07;;;1.55;;
74471;SDS011;62920;53.572;10.050;2023-08-07T00:20:25;4.30;;;1.52;;
74471;SDS011;62920;53.572;10.050;2023-08-07T00:22:50;2.72;;;1.25;;
74471;SDS011;62920;53.572;10.050;2023-08-07T00:25:16;2.90;;;1.10;;
74471;SDS011;62920;53.572;10.050;2023-08-07T00:27:41;4.72;;;1.40;;
74471;SDS011;62920;53.572;10.050;2023-08-07T00:30:06;4.57;;;1.40;;
74471;SDS011;62920;53.572;10.050;2023-08-07T00:32:32;4.85;;;1.60;;
74471;SDS011;62920;53.572;10.050;2023-08-07T00:34:57;3.15;;;1.30;;
74471;SDS011;62920;53.572;10.050;2023-08-07T00:37:23;3.60;;;1.20;;
74471;SDS011;62920;53.572;10.050;2023-08-07T00:39:48;2.38;;;1.10;;
74471;SDS011;62920;53.572;10.050;2023-08-07T00:42:14;3.53;;;1.35;;
74471;SDS011;62920;53.572;10.050;2023-08-07T00:44:39;4.57;;;1.27;;
74471;SDS011;62920;53.572;10.050;2023-08-07T00:47:05;3.42;;;1.20;;
74471;SDS011;62920;53.572;10.050;2023-08-07T00:49:31;3.28;;;1.10;;
74471;SDS011;62920;53.572;10.050;2023-08-07T00:51:56;3.75;;;1.27;;
74471;SDS011;62920;53.572;10.050;2023-08-07T00:54:21;3.60;;;1.30;;
74471;SDS011;62920;53.572;10.050;2023-08-07T00:56:47;3.03;;;1.20;;
74471;SDS011;62920;53.572;10.050;2023-08-07T00:59:13;3.47;;;1.30;;
74471;SDS011;62920;53.572;10.050;2023-08-07T01:01:39;3.60;;;1.17;;
74471;SDS011;62920;53.572;10.050;2023-08-07T01:04:04;3.38;;;1.20;;
74471;SDS011;62920;53.572;10.050;2023-08-07T01:06:30;3.00;;;1.10;;
74471;SDS011;62920;53.572;10.050;2023-08-07T01:08:56;4.03;;;1.38;;
74471;SDS011;62920;53.572;10.050;2023-08-07T01:11:29;3.05;;;1.23;;
74471;SDS011;62920;53.572;10.050;2023-08-07T01:14:23;4.43;;;1.38;;
74471;SDS011;62920;53.572;10.050;2023-08-07T01:17:06;4.15;;;1.10;;
74471;SDS011;62920;53.572;10.050;2023-08-07T01:19:35;2.85;;;1.30;;
74471;SDS011;62920;53.572;10.050;2023-08-07T01:22:08;3.80;;;1.20;;
74471;SDS011;62920;53.572;10.050;2023-08-07T01:24:33;6.32;;;1.50;;
74471;SDS011;62920;53.572;10.050;2023-08-07T01:27:07;3.65;;;1.15;;
74471;SDS011;62920;53.572;10.050;2023-08-07T01:32:08;3.50;;;1.45;;
74471;SDS011;62920;53.572;10.050;2023-08-07T01:34:35;4.28;;;1.50;;
74471;SDS011;62920;53.572;10.050;2023-08-07T01:37:02;7.32;;;1.52;;
74471;SDS011;62920;53.572;10.050;2023-08-07T01:41:53;4.20;;;1.20;;
74471;SDS011;62920;53.572;10.050;2023-08-07T01:44:19;2.88;;;1.23;;
74471;SDS011;62920;53.572;10.050;2023-08-07T01:46:45;4.68;;;1.40;;
74471;SDS011;62920;53.572;10.050;2023-08-07T01:49:10;3.70;;;1.13;;
74471;SDS011;62920;53.572;10.050;2023-08-07T01:51:36;5.55;;;1.13;;
74471;SDS011;62920;53.572;10.050;2023-08-07T01:54:01;4.18;;;1.42;;
74471;SDS011;62920;53.572;10.050;2023-08-07T01:56:26;5.65;;;1.30;;
74471;SDS011;62920;53.572;10.050;2023-08-07T01:58:52;4.70;;;1.30;;
74471;SDS011;62920;53.572;10.050;2023-08-07T02:01:17;3.75;;;1.33;;
74471;SDS011;62920;53.572;10.050;2023-08-07T02:03:42;3.58;;;1.30;;
74471;SDS011;62920;53.572;10.050;2023-08-07T02:06:08;5.50;;;1.20;;
74471;SDS011;62920;53.572;10.050;2023-08-07T02:08:33;4.10;;;1.25;;
74471;SDS011;62920;53.572;10.050;2023-08-07T02:10:58;8.85;;;1.20;;
74471;SDS011;62920;53.572;10.050;2023-08-07T02:13:26;5.35;;;1.33;;
74471;SDS011;62920;53.572;10.050;2023-08-07T02:15:51;4.18;;;1.20;;
74471;SDS011;62920;53.572;10.050;2023-08-07T02:18:17;5.47;;;1.27;;
74471;SDS011;62920;53.572;10.050;2023-08-07T02:20:42;4.53;;;1.25;;
74471;SDS011;62920;53.572;10.050;2023-08-07T02:23:08;3.70;;;1.35;;
74471;SDS011;62920;53.572;10.050;2023-08-07T02:25:34;6.65;;;1.52;;
74471;SDS011;62920;53.572;10.050;2023-08-07T02:27:59;3.40;;;1.30;;
74471;SDS011;62920;53.572;10.050;2023-08-07T02:30:24;3.00;;;1.20;;
74471;SDS011;62920;53.572;10.050;2023-08-07T02:32:50;2.75;;;1.05;;
74471;SDS011;62920;53.572;10.050;2023-08-07T02:35:15;4.88;;;1.27;;
74471;SDS011;62920;53.572;10.050;2023-08-07T02:37:41;3.15;;;1.13;;
74471;SDS011;62920;53.572;10.050;2023-08-07T02:40:06;5.20;;;1.40;;
74471;SDS011;62920;53.572;10.050;2023-08-07T02:42:32;3.38;;;1.00;;
74471;SDS011;62920;53.572;10.050;2023-08-07T02:44:57;4.20;;;1.20;;
74471;SDS011;62920;53.572;10.050;2023-08-07T02:47:22;3.78;;;1.35;;
74471;SDS011;62920;53.572;10.050;2023-08-07T02:49:48;3.25;;;1.05;;
74471;SDS011;62920;53.572;10.050;2023-08-07T02:52:13;3.38;;;1.27;;
74471;SDS011;62920;53.572;10.050;2023-08-07T02:54:39;3.15;;;1.00;;
74471;SDS011;62920;53.572;10.050;2023-08-07T02:57:04;3.47;;;1.17;;
74471;SDS011;62920;53.572;10.050;2023-08-07T02:59:30;4.85;;;1.10;;
74471;SDS011;62920;53.572;10.050;2023-08-07T03:01:55;3.22;;;0.90;;
74471;SDS011;62920;53.572;10.050;2023-08-07T03:04:21;4.70;;;0.95;;
74471;SDS011;62920;53.572;10.050;2023-08-07T03:06:46;3.05;;;1.00;;
74471;SDS011;62920;53.572;10.050;2023-08-07T03:09:12;3.30;;;1.20;;
74471;SDS011;62920;53.572;10.050;2023-08-07T03:11:37;3.10;;;1.10;;
74471;SDS011;62920;53.572;10.050;2023-08-07T03:14:03;3.33;;;1.10;;
74471;SDS011;62920;53.572;10.050;2023-08-07T03:16:28;6.82;;;1.20;;
74471;SDS011;62920;53.572;10.050;2023-08-07T03:18:53;4.60;;;1.10;;
74471;SDS011;62920;53.572;10.050;2023-08-07T03:21:19;3.20;;;1.10;;
74471;SDS011;62920;53.572;10.050;2023-08-07T03:23:44;2.60;;;0.95;;
74471;SDS011;62920;53.572;10.050;2023-08-07T03:26:10;4.88;;;1.02;;
74471;SDS011;62920;53.572;10.050;2023-08-07T03:28:36;4.80;;;1.13;;
74471;SDS011;62920;53.572;10.050;2023-08-07T03:31:02;3.72;;;1.10;;
74471;SDS011;62920;53.572;10.050;2023-08-07T03:33:28;5.75;;;1.27;;
74471;SDS011;62920;53.572;10.050;2023-08-07T03:35:53;2.92;;;1.00;;
74471;SDS011;62920;53.572;10.050;2023-08-07T03:38:18;4.22;;;1.17;;
74471;SDS011;62920;53.572;10.050;2023-08-07T03:40:44;4.05;;;1.27;;
74471;SDS011;62920;53.572;10.050;2023-08-07T03:43:09;4.03;;;0.98;;
74471;SDS011;62920;53.572;10.050;2023-08-07T03:45:35;3.33;;;0.98;;
74471;SDS011;62920;53.572;10.050;2023-08-07T03:48:00;3.13;;;1.15;;
74471;SDS011;62920;53.572;10.050;2023-08-07T03:50:26;2.65;;;0.90;;
74471;SDS011;62920;53.572;10.050;2023-08-07T03:52:51;4.25;;;1.30;;
74471;SDS011;62920;53.572;10.050;2023-08-07T03:55:16;3.78;;;1.13;;
74471;SDS011;62920;53.572;10.050;2023-08-07T03:57:43;4.32;;;1.10;;
74471;SDS011;62920;53.572;10.050;2023-08-07T04:00:08;2.72;;;1.20;;
74471;SDS011;62920;53.572;10.050;2023-08-07T04:02:34;3.22;;;0.88;;
74471;SDS011;62920;53.572;10.050;2023-08-07T04:04:59;4.45;;;1.33;;
74471;SDS011;62920;53.572;10.050;2023-08-07T04:07:25;4.57;;;1.55;;
74471;SDS011;62920;53.572;10.050;2023-08-07T04:09:50;4.80;;;1.20;;
74471;SDS011;62920;53.572;10.050;2023-08-07T04:12:15;3.47;;;1.10;;
74471;SDS011;62920;53.572;10.050;2023-08-07T04:14:41;8.15;;;1.52;;
74471;SDS011;62920;53.572;10.050;2023-08-07T04:17:06;4.53;;;1.10;;
74471;SDS011;62920;53.572;10.050;2023-08-07T04:19:32;5.55;;;1.40;;
74471;SDS011;62920;53.572;10.050;2023-08-07T04:21:57;5.57;;;1.15;;
74471;SDS011;62920;53.572;10.050;2023-08-07T04:24:22;3.55;;;1.20;;
74471;SDS011;62920;53.572;10.050;2023-08-07T04:26:48;4.07;;;1.30;;
74471;SDS011;62920;53.572;10.050;2023-08-07T04:29:14;4.28;;;1.30;;
74471;SDS011;62920;53.572;10.050;2023-08-07T04:31:39;5.75;;;1.30;;
74471;SDS011;62920;53.572;10.050;2023-08-07T04:34:05;5.97;;;1.27;;
74471;SDS011;62920;53.572;10.050;2023-08-07T04:36:30;3.30;;;1.27;;
74471;SDS011;62920;53.572;10.050;2023-08-07T04:38:55;4.55;;;1.50;;
74471;SDS011;62920;53.572;10.050;2023-08-07T04:41:21;4.40;;;1.40;;
74471;SDS011;62920;53.572;10.050;2023-08-07T04:43:47;6.30;;;1.42;;
74471;SDS011;62920;53.572;10.050;2023-08-07T04:46:13;5.10;;;1.45;;
74471;SDS011;62920;53.572;10.050;2023-08-07T04:48:39;3.63;;;1.10;;
74471;SDS011;62920;53.572;10.050;2023-08-07T04:51:05;6.15;;;1.40;;
74471;SDS011;62920;53.572;10.050;2023-08-07T04:53:30;6.45;;;1.40;;
74471;SDS011;62920;53.572;10.050;2023-08-07T04:55:56;5.45;;;2.13;;
74471;SDS011;62920;53.572;10.050;2023-08-07T04:58:21;7.95;;;1.48;;
74471;SDS011;62920;53.572;10.050;2023-08-07T05:00:46;4.57;;;1.55;;
74471;SDS011;62920;53.572;10.050;2023-08-07T05:03:12;6.57;;;1.38;;
74471;SDS011;62920;53.572;10.050;2023-08-07T05:05:37;5.63;;;1.23;;
74471;SDS011;62920;53.572;10.050;2023-08-07T05:08:03;6.10;;;1.50;;
74471;SDS011;62920;53.572;10.050;2023-08-07T05:10:28;6.78;;;1.58;;
74471;SDS011;62920;53.572;10.050;2023-08-07T05:12:54;6.28;;;1.55;;
74471;SDS011;62920;53.572;10.050;2023-08-07T05:15:22;7.35;;;1.50;;
74471;SDS011;62920;53.572;10.050;2023-08-07T05:17:48;8.80;;;1.60;;
74471;SDS011;62920;53.572;10.050;2023-08-07T05:20:13;4.70;;;1.38;;
74471;SDS011;62920;53.572;10.050;2023-08-07T05:22:39;7.38;;;1.45;;
74471;SDS011;62920;53.572;10.050;2023-08-07T05:25:04;5.55;;;1.40;;
74471;SDS011;62920;53.572;10.050;2023-08-07T05:27:30;7.97;;;1.70;;
74471;SDS011;62920;53.572;10.050;2023-08-07T05:29:55;8.05;;;1.40;;
74471;SDS011;62920;53.572;10.050;2023-08-07T05:32:21;6.60;;;1.30;;
74471;SDS011;62920;53.572;10.050;2023-08-07T05:34:46;6.13;;;1.42;;
74471;SDS011;62920;53.572;10.050;2023-08-07T05:37:11;5.00;;;1.40;;
74471;SDS011;62920;53.572;10.050;2023-08-07T05:42:03;8.17;;;2.63;;
74471;SDS011;62920;53.572;10.050;2023-08-07T05:44:29;6.90;;;2.10;;
74471;SDS011;62920;53.572;10.050;2023-08-07T05:46:55;6.03;;;1.50;;
74471;SDS011;62920;53.572;10.050;2023-08-07T05:49:20;5.95;;;1.58;;
74471;SDS011;62920;53.572;10.050;2023-08-07T05:51:46;5.97;;;1.40;;
74471;SDS011;62920;53.572;10.050;2023-08-07T05:54:11;7.80;;;1.42;;
74471;SDS011;62920;53.572;10.050;2023-08-07T05:56:37;3.75;;;1.23;;
74471;SDS011;62920;53.572;10.050;2023-08-07T05:59:03;11.73;;;1.90;;
74471;SDS011;62920;53.572;10.050;2023-08-07T06:01:28;10.40;;;1.67;;
74471;SDS011;62920;53.572;10.050;2023-08-07T06:03:57;6.07;;;1.20;;
74471;SDS011;62920;53.572;10.050;2023-08-07T06:06:23;6.90;;;1.67;;
74471;SDS011;62920;53.572;10.050;2023-08-07T06:08:53;8.63;;;1.42;;
74471;SDS011;62920;53.572;10.050;2023-08-07T06:11:19;8.77;;;1.83;;
74471;SDS011;62920;53.572;10.050;2023-08-07T06:13:44;7.43;;;1.80;;
74471;SDS011;62920;53.572;10.050;2023-08-07T06:16:10;8.15;;;1.30;;
74471;SDS011;62920;53.572;10.050;2023-08-07T06:18:36;8.65;;;2.10;;
74471;SDS011;62920;53.572;10.050;2023-08-07T06:21:02;5.78;;;1.40;;
74471;SDS011;62920;53.572;10.050;2023-08-07T06:23:28;6.13;;;1.48;;
74471;SDS011;62920;53.572;10.050;2023-08-07T06:25:54;5.97;;;1.70;;
74471;SDS011;62920;53.572;10.050;2023-08-07T06:28:19;7.30;;;1.77;;
74471;SDS011;62920;53.572;10.050;2023-08-07T06:30:46;9.65;;;1.58;;
74471;SDS011;62920;53.572;10.050;2023-08-07T06:33:11;5.63;;;1.30;;
74471;SDS011;62920;53.572;10.050;2023-08-07T06:35:37;10.63;;;2.13;;
74471;SDS011;62920;53.572;10.050;2023-08-07T06:38:04;11.18;;;1.38;;
74471;SDS011;62920;53.572;10.050;2023-08-07T06:40:29;13.70;;;2.00;;
74471;SDS011;62920;53.572;10.050;2023-08-07T06:42:56;10.40;;;1.83;;
74471;SDS011;62920;53.572;10.050;2023-08-07T06:45:21;6.47;;;1.67;;
74471;SDS011;62920;53.572;10.050;2023-08-07T06:47:46;9.65;;;1.80;;
74471;SDS011;62920;53.572;10.050;2023-08-07T06:50:13;8.13;;;1.88;;
74471;SDS011;62920;53.572;10.050;2023-08-07T06:52:38;10.57;;;2.13;;
74471;SDS011;62920;53.572;10.050;2023-08-07T06:55:04;9.65;;;1.92;;
74471;SDS011;62920;53.572;10.050;2023-08-07T06:57:29;12.20;;;1.70;;
74471;SDS011;62920;53.572;10.050;2023-08-07T06:59:55;8.60;;;1.60;;
74471;SDS011;62920;53.572;10.050;2023-08-07T07:02:20;7.10;;;1.73;;
74471;SDS011;62920;53.572;10.050;2023-08-07T07:04:46;10.77;;;2.10;;
74471;SDS011;62920;53.572;10.050;2023-08-07T07:07:11;10.10;;;1.90;;
74471;SDS011;62920;53.572;10.050;2023-08-07T07:09:36;9.23;;;1.55;;
74471;SDS011;62920;53.572;10.050;2023-08-07T07:12:02;10.52;;;1.80;;
74471;SDS011;62920;53.572;10.050;2023-08-07T07:14:28;10.45;;;2.20;;
74471;SDS011;62920;53.572;10.050;2023-08-07T07:16:53;16.38;;;2.53;;
74471;SDS011;62920;53.572;10.050;2023-08-07T07:19:18;12.32;;;1.95;;
74471;SDS011;62920;53.572;10.050;2023-08-07T07:21:44;9.10;;;1.73;;
74471;SDS011;62920;53.572;10.050;2023-08-07T07:24:09;15.90;;;2.00;;
74471;SDS011;62920;53.572;10.050;2023-08-07T07:26:35;13.00;;;2.50;;
74471;SDS011;62920;53.572;10.050;2023-08-07T07:29:00;7.00;;;1.77;;
74471;SDS011;62920;53.572;10.050;2023-08-07T07:31:26;10.18;;;2.10;;
74471;SDS011;62920;53.572;10.050;2023-08-07T07:33:51;13.45;;;1.95;;
74471;SDS011;62920;53.572;10.050;2023-08-07T07:36:17;6.70;;;1.67;;
74471;SDS011;62920;53.572;10.050;2023-08-07T07:38:44;12.23;;;2.10;;
74471;SDS011;62920;53.572;10.050;2023-08-07T07:41:10;11.05;;;1.92;;
74471;SDS011;62920;53.572;10.050;2023-08-07T07:43:36;9.52;;;1.88;;
74471;SDS011;62920;53.572;10.050;2023-08-07T07:46:02;12.55;;;2.33;;
74471;SDS011;62920;53.572;10.050;2023-08-07T07:48:28;10.60;;;2.20;;
74471;SDS011;62920;53.572;10.050;2023-08-07T07:51:03;13.02;;;2.67;;
74471;SDS011;62920;53.572;10.050;2023-08-07T07:53:29;8.82;;;2.15;;
74471;SDS011;62920;53.572;10.050;2023-08-07T07:55:55;10.35;;;2.20;;
74471;SDS011;62920;53.572;10.050;2023-08-07T07:58:20;10.75;;;2.10;;
74471;SDS011;62920;53.572;10.050;2023-08-07T08:00:46;14.05;;;2.58;;
74471;SDS011;62920;53.572;10.050;2023-08-07T08:03:12;10.27;;;2.05;;
74471;SDS011;62920;53.572;10.050;2023-08-07T08:05:38;9.52;;;2.38;;
74471;SDS011;62920;53.572;10.050;2023-08-07T08:08:04;11.13;;;2.25;;
74471;SDS011;62920;53.572;10.050;2023-08-07T08:10:30;9.15;;;2.42;;
74471;SDS011;62920;53.572;10.050;2023-08-07T08:12:56;7.35;;;1.92;;
74471;SDS011;62920;53.572;10.050;2023-08-07T08:15:21;8.35;;;2.38;;
74471;SDS011;62920;53.572;10.050;2023-08-07T08:17:47;10.70;;;1.90;;
74471;SDS011;62920;53.572;10.050;2023-08-07T08:20:13;8.80;;;2.00;;
74471;SDS011;62920;53.572;10.050;2023-08-07T08:22:43;12.40;;;2.03;;
74471;SDS011;62920;53.572;10.050;2023-08-07T08:25:09;12.07;;;2.50;;
74471;SDS011;62920;53.572;10.050;2023-08-07T08:27:35;10.32;;;2.47;;
74471;SDS011;62920;53.572;10.050;2023-08-07T08:30:00;7.95;;;1.75;;
74471;SDS011;62920;53.572;10.050;2023-08-07T08:32:27;7.97;;;2.05;;
74471;SDS011;62920;53.572;10.050;2023-08-07T08:34:53;14.40;;;2.60;;
74471;SDS011;62920;53.572;10.050;2023-08-07T08:37:18;10.25;;;2.28;;
74471;SDS011;62920;53.572;10.050;2023-08-07T08:39:43;12.77;;;2.28;;
74471;SDS011;62920;53.572;10.050;2023-08-07T08:42:10;11.57;;;2.25;;
74471;SDS011;62920;53.572;10.050;2023-08-07T08:44:38;14.48;;;2.90;;
74471;SDS011;62920;53.572;10.050;2023-08-07T08:49:35;9.90;;;2.27;;
74471;SDS011;62920;53.572;10.050;2023-08-07T08:52:01;8.25;;;2.15;;
74471;SDS011;62920;53.572;10.050;2023-08-07T08:56:53;18.27;;;2.60;;
74471;SDS011;62920;53.572;10.050;2023-08-07T08:59:20;11.63;;;2.30;;
74471;SDS011;62920;53.572;10.050;2023-08-07T09:01:46;13.93;;;2.65;;
74471;SDS011;62920;53.572;10.050;2023-08-07T09:04:13;9.23;;;2.03;;
74471;SDS011;62920;53.572;10.050;2023-08-07T09:06:38;12.02;;;2.10;;
74471;SDS011;62920;53.572;10.050;2023-08-07T09:09:04;11.27;;;2.15;;
74471;SDS011;62920;53.572;10.050;2023-08-07T09:11:30;12.65;;;2.08;;
74471;SDS011;62920;53.572;10.050;2023-08-07T09:13:55;15.00;;;2.45;;
74471;SDS011;62920;53.572;10.050;2023-08-07T09:16:21;13.73;;;2.50;;
74471;SDS011;62920;53.572;10.050;2023-08-07T09:18:48;11.95;;;2.05;;
74471;SDS011;62920;53.572;10.050;2023-08-07T09:21:15;10.70;;;2.25;;
74471;SDS011;62920;53.572;10.050;2023-08-07T09:23:42;13.93;;;2.30;;
74471;SDS011;62920;53.572;10.050;2023-08-07T09:26:07;13.77;;;2.03;;
74471;SDS011;62920;53.572;10.050;2023-08-07T09:28:33;7.15;;;1.65;;
74471;SDS011;62920;53.572;10.050;2023-08-07T09:30:59;14.95;;;2.42;;
74471;SDS011;62920;53.572;10.050;2023-08-07T09:33:25;9.30;;;2.00;;
74471;SDS011;62920;53.572;10.050;2023-08-07T09:35:51;9.23;;;1.73;;
74471;SDS011;62920;53.572;10.050;2023-08-07T09:38:17;9.65;;;2.15;;
74471;SDS011;62920;53.572;10.050;2023-08-07T09:40:42;10.27;;;1.80;;
74471;SDS011;62920;53.572;10.050;2023-08-07T09:43:08;13.90;;;2.28;;
74471;SDS011;62920;53.572;10.050;2023-08-07T09:45:33;9.43;;;1.83;;
74471;SDS011;62920;53.572;10.050;2023-08-07T09:48:05;9.93;;;1.88;;
74471;SDS011;62920;53.572;10.050;2023-08-07T09:50:31;12.77;;;2.28;;
74471;SDS011;62920;53.572;10.050;2023-08-07T09:52:57;9.25;;;1.83;;
74471;SDS011;62920;53.572;10.050;2023-08-07T09:55:23;7.80;;;1.80;;
74471;SDS011;62920;53.572;10.050;2023-08-07T09:57:49;7.22;;;2.00;;
74471;SDS011;62920;53.572;10.050;2023-08-07T10:00:16;6.22;;;1.88;;
74471;SDS011;62920;53.572;10.050;2023-08-07T10:02:44;8.88;;;1.50;;
74471;SDS011;62920;53.572;10.050;2023-08-07T10:07:40;11.43;;;2.10;;
74471;SDS011;62920;53.572;10.050;2023-08-07T10:10:09;9.60;;;2.00;;
74471;SDS011;62920;53.572;10.050;2023-08-07T10:12:35;11.95;;;1.95;;
74471;SDS011;62920;53.572;10.050;2023-08-07T10:15:02;7.30;;;1.70;;
74471;SDS011;62920;53.572;10.050;2023-08-07T10:17:27;8.48;;;1.63;;
74471;SDS011;62920;53.572;10.050;2023-08-07T10:19:53;8.38;;;1.92;;
74471;SDS011;62920;53.572;10.050;2023-08-07T10:22:19;10.88;;;2.00;;
74471;SDS011;62920;53.572;10.050;2023-08-07T10:24:47;10.50;;;1.80;;
74471;SDS011;62920;53.572;10.050;2023-08-07T10:27:13;9.32;;;1.73;;
74471;SDS011;62920;53.572;10.050;2023-08-07T10:29:40;10.02;;;1.90;;
74471;SDS011;62920;53.572;10.050;2023-08-07T10:32:07;9.77;;;2.00;;
74471;SDS011;62920;53.572;10.050;2023-08-07T10:34:33;10.68;;;1.83;;
74471;SDS011;62920;53.572;10.050;2023-08-07T10:36:59;8.57;;;2.15;;
74471;SDS011;62920;53.572;10.050;2023-08-07T10:39:24;16.90;;;2.78;;
74471;SDS011;62920;53.572;10.050;2023-08-07T10:41:52;7.57;;;1.83;;
74471;SDS011;62920;53.572;10.050;2023-08-07T10:44:26;10.13;;;2.05;;
74471;SDS011;62920;53.572;10.050;2023-08-07T10:46:56;8.98;;;1.70;;
74471;SDS011;62920;53.572;10.050;2023-08-07T10:49:32;13.45;;;1.85;;
74471;SDS011;62920;53.572;10.050;2023-08-07T10:51:59;7.13;;;1.63;;
74471;SDS011;62920;53.572;10.050;2023-08-07T10:54:27;11.90;;;1.70;;
74471;SDS011;62920;53.572;10.050;2023-08-07T10:56:53;7.78;;;1.65;;
74471;SDS011;62920;53.572;10.050;2023-08-07T10:59:19;8.68;;;1.63;;
74471;SDS011;62920;53.572;10.050;2023-08-07T11:01:48;8.32;;;1.75;;
74471;SDS011;62920;53.572;10.050;2023-08-07T11:04:16;7.40;;;1.70;;
74471;SDS011;62920;53.572;10.050;2023-08-07T11:06:42;7.35;;;2.10;;
74471;SDS011;62920;53.572;10.050;2023-08-07T11:09:09;7.60;;;2.15;;
74471;SDS011;62920;53.572;10.050;2023-08-07T11:14:08;5.93;;;1.60;;
74471;SDS011;62920;53.572;10.050;2023-08-07T11:16:35;6.88;;;1.70;;
74471;SDS011;62920;53.572;10.050;2023-08-07T11:19:01;6.57;;;1.50;;
74471;SDS011;62920;53.572;10.050;2023-08-07T11:21:26;7.57;;;1.70;;
74471;SDS011;62920;53.572;10.050;2023-08-07T11:23:52;7.75;;;1.70;;
74471;SDS011;62920;53.572;10.050;2023-08-07T11:26:17;7.20;;;1.55;;
74471;SDS011;62920;53.572;10.050;2023-08-07T11:28:46;5.65;;;1.20;;
74471;SDS011;62920;53.572;10.050;2023-08-07T11:31:12;6.97;;;1.20;;
74471;SDS011;62920;53.572;10.050;2023-08-07T11:33:38;8.48;;;1.50;;
74471;SDS011;62920;53.572;10.050;2023-08-07T11:36:03;7.65;;;1.38;;
74471;SDS011;62920;53.572;10.050;2023-08-07T11:38:42;5.80;;;1.40;;
74471;SDS011;62920;53.572;10.050;2023-08-07T11:41:09;6.90;;;1.50;;
74471;SDS011;62920;53.572;10.050;2023-08-07T11:43:36;8.65;;;1.30;;
74471;SDS011;62920;53.572;10.050;2023-08-07T11:46:03;7.65;;;1.60;;
74471;SDS011;62920;53.572;10.050;2023-08-07T11:48:30;7.70;;;1.23;;
74471;SDS011;62920;53.572;10.050;2023-08-07T11:50:56;12.43;;;1.55;;
74471;SDS011;62920;53.572;10.050;2023-08-07T11:53:26;6.15;;;1.40;;
74471;SDS011;62920;53.572;10.050;2023-08-07T11:55:55;7.97;;;1.52;;
74471;SDS011;62920;53.572;10.050;2023-08-07T11:58:25;4.68;;;1.23;;
74471;SDS011;62920;53.572;10.050;2023-08-07T12:00:52;4.82;;;1.00;;
74471;SDS011;62920;53.572;10.050;2023-08-07T12:03:28;8.65;;;1.65;;
74471;SDS011;62920;53.572;10.050;2023-08-07T12:05:55;6.15;;;1.40;;
74471;SDS011;62920;53.572;10.050;2023-08-07T12:08:21;6.07;;;1.15;;
74471;SDS011;62920;53.572;10.050;2023-08-07T12:10:53;6.18;;;1.42;;
74471;SDS011;62920;53.572;10.050;2023-08-07T12:15:45;7.88;;;1.60;;
74471;SDS011;62920;53.572;10.050;2023-08-07T12:18:10;6.65;;;1.70;;
74471;SDS011;62920;53.572;10.050;2023-08-07T12:20:38;5.72;;;1.17;;
74471;SDS011;62920;53.572;10.050;2023-08-07T12:23:03;7.28;;;1.35;;
74471;SDS011;62920;53.572;10.050;2023-08-07T12:25:28;5.70;;;1.02;;
74471;SDS011;62920;53.572;10.050;2023-08-07T12:27:54;5.70;;;1.23;;
74471;SDS011;62920;53.572;10.050;2023-08-07T12:30:19;12.02;;;1.70;;
74471;SDS011;62920;53.572;10.050;2023-08-07T12:32:44;8.75;;;1.42;;
74471;SDS011;62920;53.572;10.050;2023-08-07T12:35:10;9.07;;;1.20;;
74471;SDS011;62920;53.572;10.050;2023-08-07T12:37:36;7.68;;;1.80;;
74471;SDS011;62920;53.572;10.050;2023-08-07T12:40:01;7.63;;;1.40;;
74471;SDS011;62920;53.572;10.050;2023-08-07T12:42:28;7.72;;;1.45;;
74471;SDS011;62920;53.572;10.050;2023-08-07T12:44:53;8.40;;;2.15;;
74471;SDS011;62920;53.572;10.050;2023-08-07T12:47:18;6.07;;;1.63;;
74471;SDS011;62920;53.572;10.050;2023-08-07T12:49:44;14.43;;;1.98;;
74471;SDS011;62920;53.572;10.050;2023-08-07T12:52:12;7.97;;;1.83;;
74471;SDS011;62920;53.572;10.050;2023-08-07T12:54:38;9.10;;;1.67;;
74471;SDS011;62920;53.572;10.050;2023-08-07T12:57:03;6.53;;;1.55;;
74471;SDS011;62920;53.572;10.050;2023-08-07T12:59:28;10.35;;;1.70;;
74471;SDS011;62920;53.572;10.050;2023-08-07T13:01:54;10.43;;;1.67;;
74471;SDS011;62920;53.572;10.050;2023-08-07T13:04:19;7.65;;;1.45;;
74471;SDS011;62920;53.572;10.050;2023-08-07T13:06:45;9.05;;;1.45;;
74471;SDS011;62920;53.572;10.050;2023-08-07T13:09:10;7.03;;;1.60;;
74471;SDS011;62920;53.572;10.050;2023-08-07T13:11:36;8.02;;;1.80;;
74471;SDS011;62920;53.572;10.050;2023-08-07T13:14:01;8.35;;;1.80;;
74471;SDS011;62920;53.572;10.050;2023-08-07T13:16:26;7.93;;;1.30;;
74471;SDS011;62920;53.572;10.050;2023-08-07T13:18:52;9.32;;;1.70;;
74471;SDS011;62920;53.572;10.050;2023-08-07T13:21:17;8.85;;;1.70;;
74471;SDS011;62920;53.572;10.050;2023-08-07T13:23:43;10.60;;;1.67;;
74471;SDS011;62920;53.572;10.050;2023-08-07T13:26:08;9.07;;;1.60;;
74471;SDS011;62920;53.572;10.050;2023-08-07T13:28:33;8.70;;;1.50;;
74471;SDS011;62920;53.572;10.050;2023-08-07T13:30:59;8.20;;;1.48;;
74471;SDS011;62920;53.572;10.050;2023-08-07T13:33:24;10.45;;;1.90;;
74471;SDS011;62920;53.572;10.050;2023-08-07T13:35:50;7.72;;;1.58;;
74471;SDS011;62920;53.572;10.050;2023-08-07T13:38:15;5.50;;;1.50;;
74471;SDS011;62920;53.572;10.050;2023-08-07T13:40:43;9.00;;;1.70;;
74471;SDS011;62920;53.572;10.050;2023-08-07T13:43:10;9.43;;;1.95;;
74471;SDS011;62920;53.572;10.050;2023-08-07T13:45:36;11.18;;;1.80;;
74471;SDS011;62920;53.572;10.050;2023-08-07T13:48:01;8.32;;;1.52;;
74471;SDS011;62920;53.572;10.050;2023-08-07T13:50:27;11.90;;;1.70;;
74471;SDS011;62920;53.572;10.050;2023-08-07T13:52:52;11.18;;;1.95;;
74471;SDS011;62920;53.572;10.050;2023-08-07T13:55:18;10.68;;;2.20;;
74471;SDS011;62920;53.572;10.050;2023-08-07T13:57:43;10.25;;;1.90;;
74471;SDS011;62920;53.572;10.050;2023-08-07T14:00:09;11.70;;;1.98;;
74471;SDS011;62920;53.572;10.050;2023-08-07T14:02:36;6.88;;;2.15;;
74471;SDS011;62920;53.572;10.050;2023-08-07T14:05:01;8.25;;;2.00;;
74471;SDS011;62920;53.572;10.050;2023-08-07T14:07:27;9.50;;;2.25;;
74471;SDS011;62920;53.572;10.050;2023-08-07T14:09:52;9.43;;;1.92;;
74471;SDS011;62920;53.572;10.050;2023-08-07T14:12:18;7.72;;;1.83;;
74471;SDS011;62920;53.572;10.050;2023-08-07T14:14:43;7.63;;;1.60;;
74471;SDS011;62920;53.572;10.050;2023-08-07T14:17:09;9.55;;;1.85;;
74471;SDS011;62920;53.572;10.050;2023-08-07T14:19:34;9.32;;;1.85;;
74471;SDS011;62920;53.572;10.050;2023-08-07T14:22:00;9.02;;;1.73;;
74471;SDS011;62920;53.572;10.050;2023-08-07T14:24:25;6.78;;;1.40;;
74471;SDS011;62920;53.572;10.050;2023-08-07T14:26:51;6.15;;;1.67;;
74471;SDS011;62920;53.572;10.050;2023-08-07T14:29:16;8.15;;;1.50;;
74471;SDS011;62920;53.572;10.050;2023-08-07T14:31:41;8.13;;;1.75;;
74471;SDS011;62920;53.572;10.050;2023-08-07T14:34:07;8.55;;;2.10;;
74471;SDS011;62920;53.572;10.050;2023-08-07T14:36:32;8.65;;;1.88;;
74471;SDS011;62920;53.572;10.050;2023-08-07T14:38:58;10.10;;;2.00;;
74471;SDS011;62920;53.572;10.050;2023-08-07T14:41:23;7.10;;;1.80;;
74471;SDS011;62920;53.572;10.050;2023-08-07T14:43:48;8.60;;;1.83;;